Time;durP1;ratioP1;P1;durP2;ratioP2;P2;SDS_P1;SDS_P2;PMS_P1;PMS_P2;Temp;Humidity;BMP_temperature;BMP_pressure;BME280_temperature;BME280_humidity;BME280_pressure;Samples;Min_cycle;Max_cycle;Signal;HPM_P1;HPM_P2
2022/07/13 00:02:04;;;;;;;;;6.00;6.00;;;;;;;;5075158;28;45405;-79
2022/07/13 00:04:30;;;;;;;;;4.75;4.75;;;;;;;;5078512;28;45262;-79
2022/07/13 00:06:55;;;;;;;;;3.50;3.50;;;;;;;;5070061;28;45255;-78
2022/07/13 00:09:20;;;;;;;;;4.25;4.25;;;;;;;;5074347;28;45362;-78
2022/07/13 00:11:45;;;;;;;;;6.00;4.75;;;;;;;;5071233;28;45386;-79
2022/07/13 00:14:10;;;;;;;;;5.00;4.25;;;;;;;;5071909;28;45324;-79
2022/07/13 00:16:35;;;;;;;;;4.00;4.00;;;;;;;;5072347;28;45940;-78
2022/07/13 00:19:01;;;;;;;;;5.25;5.25;;;;;;;;5071870;28;45601;-79
2022/07/13 00:21:26;;;;;;;;;6.25;4.75;;;;;;;;5075969;28;45333;-78
2022/07/13 00:23:51;;;;;;;;;4.75;4.75;;;;;;;;5079474;28;45211;-78
2022/07/13 00:26:16;;;;;;;;;5.25;4.00;;;;;;;;5072470;28;45562;-78
2022/07/13 00:28:42;;;;;;;;;5.00;5.00;;;;;;;;5078592;28;48484;-78
2022/07/13 00:31:07;;;;;;;;;4.75;4.75;;;;;;;;5075520;28;45383;-78
2022/07/13 00:33:32;;;;;;;;;5.50;5.00;;;;;;;;5077758;28;45351;-78
2022/07/13 00:35:57;;;;;;;;;5.25;5.25;;;;;;;;5074457;28;45683;-78
2022/07/13 00:38:23;;;;;;;;;6.50;4.25;;;;;;;;5074899;28;46380;-78
2022/07/13 00:40:48;;;;;;;;;5.50;5.50;;;;;;;;5076301;28;45559;-78
2022/07/13 00:43:13;;;;;;;;;5.00;5.00;;;;;;;;5076426;28;45391;-77
2022/07/13 00:45:38;;;;;;;;;6.00;4.00;;;;;;;;5076300;28;45729;-78
2022/07/13 00:48:04;;;;;;;;;6.50;5.50;;;;;;;;5075667;28;46413;-78
2022/07/13 00:50:30;;;;;;;;;5.00;4.50;;;;;;;;5076373;28;45408;-78
2022/07/13 00:52:55;;;;;;;;;4.75;4.75;;;;;;;;5074178;28;45405;-77
2022/07/13 00:55:20;;;;;;;;;6.00;5.00;;;;;;;;5078005;28;45383;-78
2022/07/13 00:57:45;;;;;;;;;5.50;5.50;;;;;;;;5072656;28;46210;-78
2022/07/13 01:00:12;;;;;;;;;6.75;5.25;;;;;;;;5079001;28;45426;-78
2022/07/13 01:02:41;;;;;;;;;6.75;5.50;;;;;;;;5074595;28;45422;-78
2022/07/13 01:05:07;;;;;;;;;7.00;7.00;;;;;;;;5079725;28;45218;-79
2022/07/13 01:07:32;;;;;;;;;6.00;4.67;;;;;;;;5070695;28;46604;-78
2022/07/13 01:10:01;;;;;;;;;6.00;5.00;;;;;;;;5078392;28;45397;-79
2022/07/13 01:12:30;;;;;;;;;8.00;5.00;;;;;;;;5071965;28;45300;-78
2022/07/13 01:14:56;;;;;;;;;10.00;8.00;;;;;;;;5077929;28;45453;-77
2022/07/13 01:17:22;;;;;;;;;6.00;6.00;;;;;;;;5072118;28;46610;-78
2022/07/13 01:19:47;;;;;;;;;4.33;4.33;;;;;;;;5069896;27;45232;-78
2022/07/13 01:22:16;;;;;;;;;5.67;5.67;;;;;;;;5070336;28;46433;-78
2022/07/13 01:24:42;;;;;;;;;7.50;6.50;;;;;;;;5078652;28;45503;-78
2022/07/13 01:27:07;;;;;;;;;9.33;7.33;;;;;;;;5071470;28;45492;-77
2022/07/13 01:29:32;;;;;;;;;6.67;6.67;;;;;;;;5076694;28;45536;-78
2022/07/13 01:32:01;;;;;;;;;6.00;6.00;;;;;;;;5072206;28;45683;-77
2022/07/13 01:34:27;;;;;;;;;5.00;5.00;;;;;;;;5076875;28;45262;-78
2022/07/13 01:36:52;;;;;;;;;8.00;6.00;;;;;;;;5070587;28;46572;-77
2022/07/13 01:39:18;;;;;;;;;4.00;4.00;;;;;;;;5076904;28;45208;-78
2022/07/13 01:41:43;;;;;;;;;9.00;7.00;;;;;;;;5072654;28;45406;-77
2022/07/13 01:44:08;;;;;;;;;7.00;5.67;;;;;;;;5076460;28;45421;-78
2022/07/13 01:46:33;;;;;;;;;7.00;7.00;;;;;;;;5072364;28;46999;-77
2022/07/13 01:48:58;;;;;;;;;7.33;6.33;;;;;;;;5075948;28;45436;-78
2022/07/13 01:51:24;;;;;;;;;8.00;6.33;;;;;;;;5070474;27;45360;-78
2022/07/13 01:53:49;;;;;;;;;8.00;6.67;;;;;;;;5074533;28;45264;-77
2022/07/13 01:56:14;;;;;;;;;7.67;6.00;;;;;;;;5073235;28;45982;-77
2022/07/13 01:58:40;;;;;;;;;7.67;6.67;;;;;;;;5074938;28;45285;-78
2022/07/13 02:01:05;;;;;;;;;6.00;5.00;;;;;;;;5074522;28;45538;-78
2022/07/13 02:03:31;;;;;;;;;7.67;6.67;;;;;;;;5076207;28;45435;-77
2022/07/13 02:05:57;;;;;;;;;8.00;6.67;;;;;;;;5075285;28;46601;-77
2022/07/13 02:08:23;;;;;;;;;7.33;6.00;;;;;;;;5073331;28;45386;-77
2022/07/13 02:10:48;;;;;;;;;5.00;5.00;;;;;;;;5076563;27;45500;-77
2022/07/13 02:13:14;;;;;;;;;5.00;5.00;;;;;;;;5075699;28;45220;-78
2022/07/13 02:15:39;;;;;;;;;8.33;6.67;;;;;;;;5079319;28;45270;-77
2022/07/13 02:18:05;;;;;;;;;6.00;6.00;;;;;;;;5075708;28;45247;-77
2022/07/13 02:20:30;;;;;;;;;11.00;9.00;;;;;;;;5079962;28;45607;-78
2022/07/13 02:22:55;;;;;;;;;9.33;7.67;;;;;;;;5077463;28;45691;-77
2022/07/13 02:25:21;;;;;;;;;5.33;5.33;;;;;;;;5079484;27;46690;-77
2022/07/13 02:27:46;;;;;;;;;5.00;5.00;;;;;;;;5070091;28;45149;-77
2022/07/13 02:30:12;;;;;;;;;3.33;3.00;;;;;;;;5071683;28;45246;-77
2022/07/13 02:32:38;;;;;;;;;6.67;4.33;;;;;;;;5072756;28;45217;-77
2022/07/13 02:35:03;;;;;;;;;5.67;4.00;;;;;;;;5072803;28;46266;-77
2022/07/13 02:37:29;;;;;;;;;6.75;3.50;;;;;;;;5071691;28;45470;-77
2022/07/13 02:39:56;;;;;;;;;4.00;4.00;;;;;;;;5079375;28;45403;-77
2022/07/13 02:42:22;;;;;;;;;3.50;3.50;;;;;;;;5077407;28;45561;-77
2022/07/13 02:44:47;;;;;;;;;5.00;4.67;;;;;;;;5071036;27;45461;-77
2022/07/13 02:47:13;;;;;;;;;4.50;4.50;;;;;;;;5073548;27;45425;-77
2022/07/13 02:49:38;;;;;;;;;3.50;3.50;;;;;;;;5079802;28;45307;-77
2022/07/13 02:52:03;;;;;;;;;5.25;3.00;;;;;;;;5074891;28;46217;-77
2022/07/13 02:54:28;;;;;;;;;5.50;3.75;;;;;;;;5079228;28;46343;-77
2022/07/13 02:56:55;;;;;;;;;4.00;3.25;;;;;;;;5076479;28;45383;-77
2022/07/13 02:59:20;;;;;;;;;5.33;4.67;;;;;;;;5078049;28;45295;-77
2022/07/13 03:01:46;;;;;;;;;4.00;4.00;;;;;;;;5076141;28;45212;-77
2022/07/13 03:04:11;;;;;;;;;7.50;6.00;;;;;;;;5079402;28;45483;-77
2022/07/13 03:06:36;;;;;;;;;7.25;6.00;;;;;;;;5075083;28;45306;-77
2022/07/13 03:09:01;;;;;;;;;8.00;5.00;;;;;;;;5079219;28;45221;-77
2022/07/13 03:11:26;;;;;;;;;4.67;4.33;;;;;;;;5076071;28;45457;-77
2022/07/13 03:13:51;;;;;;;;;5.00;5.00;;;;;;;;5077560;28;46215;-77
2022/07/13 03:16:17;;;;;;;;;6.67;4.33;;;;;;;;5077403;28;45202;-77
2022/07/13 03:18:42;;;;;;;;;5.33;5.00;;;;;;;;5077683;28;45408;-77
2022/07/13 03:21:08;;;;;;;;;7.67;6.67;;;;;;;;5075970;27;45766;-77
2022/07/13 03:23:34;;;;;;;;;7.33;7.33;;;;;;;;5066457;28;45381;-77
2022/07/13 03:26:00;;;;;;;;;8.00;8.00;;;;;;;;5063339;27;45390;-77
2022/07/13 03:28:25;;;;;;;;;9.00;7.00;;;;;;;;5076600;28;45267;-77
2022/07/13 03:30:50;;;;;;;;;11.33;7.67;;;;;;;;5077841;28;45381;-77
2022/07/13 03:33:15;;;;;;;;;6.00;6.00;;;;;;;;5073914;28;48342;-78
2022/07/13 03:35:40;;;;;;;;;8.00;6.67;;;;;;;;5078327;28;45437;-77
2022/07/13 03:38:05;;;;;;;;;6.33;5.33;;;;;;;;5072285;28;45280;-77
2022/07/13 03:40:31;;;;;;;;;7.33;6.00;;;;;;;;5078662;28;45467;-77
2022/07/13 03:42:56;;;;;;;;;6.33;6.33;;;;;;;;5073577;28;45472;-77
2022/07/13 03:45:21;;;;;;;;;7.00;7.00;;;;;;;;5079865;28;45434;-77
2022/07/13 03:47:46;;;;;;;;;4.00;3.00;;;;;;;;5072767;28;45329;-77
2022/07/13 03:50:11;;;;;;;;;5.25;5.00;;;;;;;;5080732;28;45318;-77
2022/07/13 03:52:37;;;;;;;;;5.50;5.50;;;;;;;;5072186;28;45445;-77
2022/07/13 03:55:02;;;;;;;;;6.00;6.00;;;;;;;;5080028;28;45410;-77
2022/07/13 03:57:27;;;;;;;;;6.00;6.00;;;;;;;;5074519;28;45271;-77
2022/07/13 03:59:52;;;;;;;;;4.33;4.33;;;;;;;;5077538;28;45422;-77
2022/07/13 04:02:17;;;;;;;;;7.00;5.00;;;;;;;;5075909;28;45390;-77
2022/07/13 04:04:43;;;;;;;;;6.00;4.67;;;;;;;;5078293;28;45535;-77
2022/07/13 04:07:08;;;;;;;;;6.00;6.00;;;;;;;;5073979;28;45298;-77
2022/07/13 04:09:33;;;;;;;;;7.00;6.67;;;;;;;;5078344;28;45384;-78
2022/07/13 04:11:58;;;;;;;;;8.67;8.67;;;;;;;;5075266;27;47620;-77
2022/07/13 04:14:23;;;;;;;;;6.00;5.00;;;;;;;;5078298;28;45293;-77
2022/07/13 04:16:49;;;;;;;;;6.67;6.67;;;;;;;;5072373;28;45219;-77
2022/07/13 04:19:14;;;;;;;;;10.00;9.67;;;;;;;;5078426;28;45231;-77
2022/07/13 04:21:39;;;;;;;;;8.33;7.33;;;;;;;;5074543;28;45412;-77
2022/07/13 04:24:05;;;;;;;;;10.00;7.67;;;;;;;;5077661;28;45230;-77
2022/07/13 04:26:30;;;;;;;;;10.33;10.33;;;;;;;;5074128;28;45336;-78
2022/07/13 04:28:55;;;;;;;;;10.67;9.00;;;;;;;;5077028;28;45282;-77
2022/07/13 04:31:20;;;;;;;;;9.67;7.67;;;;;;;;5073726;28;45393;-78
2022/07/13 04:33:46;;;;;;;;;8.33;7.00;;;;;;;;5074444;27;45426;-77
2022/07/13 04:36:11;;;;;;;;;7.67;7.67;;;;;;;;5075192;28;45386;-77
2022/07/13 04:38:36;;;;;;;;;10.67;8.00;;;;;;;;5075583;28;45413;-77
2022/07/13 04:41:01;;;;;;;;;10.00;7.00;;;;;;;;5076133;28;45150;-78
2022/07/13 04:43:26;;;;;;;;;8.33;8.00;;;;;;;;5075816;28;45401;-77
2022/07/13 04:45:52;;;;;;;;;16.33;9.00;;;;;;;;5076282;28;45207;-77
2022/07/13 04:48:18;;;;;;;;;9.67;9.67;;;;;;;;5072928;28;46051;-77
2022/07/13 04:50:43;;;;;;;;;12.67;10.00;;;;;;;;5078763;28;45500;-78
2022/07/13 04:53:08;;;;;;;;;11.67;8.33;;;;;;;;5072108;28;45516;-77
2022/07/13 04:55:36;;;;;;;;;10.33;7.67;;;;;;;;5079707;28;45196;-78
2022/07/13 04:58:01;;;;;;;;;13.67;11.67;;;;;;;;5077720;28;45480;-78
2022/07/13 05:00:27;;;;;;;;;10.33;10.00;;;;;;;;5078243;28;45363;-78
2022/07/13 05:02:52;;;;;;;;;9.67;9.67;;;;;;;;5068387;28;45476;-78
2022/07/13 05:05:17;;;;;;;;;8.67;8.67;;;;;;;;5080680;28;45440;-77
2022/07/13 05:07:42;;;;;;;;;9.33;8.67;;;;;;;;5072152;28;45348;-77
2022/07/13 05:10:08;;;;;;;;;11.00;10.00;;;;;;;;5079546;28;45524;-77
2022/07/13 05:12:39;;;;;;;;;13.33;12.33;;;;;;;;5071139;28;45501;-78
2022/07/13 05:15:04;;;;;;;;;9.00;9.00;;;;;;;;5078283;28;45347;-77
2022/07/13 05:17:30;;;;;;;;;14.00;12.33;;;;;;;;5074249;28;45664;-77
2022/07/13 05:19:55;;;;;;;;;13.00;12.00;;;;;;;;5080099;28;46302;-77
2022/07/13 05:22:20;;;;;;;;;11.33;11.00;;;;;;;;5070704;28;45353;-78
2022/07/13 05:24:45;;;;;;;;;14.00;11.00;;;;;;;;5061153;27;45396;-78
2022/07/13 05:27:11;;;;;;;;;11.00;9.33;;;;;;;;5067642;28;45666;-78
2022/07/13 05:29:36;;;;;;;;;11.33;9.33;;;;;;;;5078036;28;45272;-77
2022/07/13 05:32:02;;;;;;;;;8.00;6.00;;;;;;;;5072300;28;45274;-77
2022/07/13 05:34:27;;;;;;;;;6.33;6.00;;;;;;;;5077341;28;45421;-77
2022/07/13 05:36:55;;;;;;;;;9.00;7.00;;;;;;;;5072477;28;45610;-77
2022/07/13 05:39:21;;;;;;;;;8.00;8.00;;;;;;;;5079610;28;45710;-77
2022/07/13 05:41:46;;;;;;;;;10.67;7.67;;;;;;;;5071501;28;45276;-77
2022/07/13 05:44:11;;;;;;;;;9.33;7.33;;;;;;;;5076968;28;45442;-77
2022/07/13 05:46:36;;;;;;;;;6.67;6.00;;;;;;;;5072714;28;45375;-77
2022/07/13 05:49:02;;;;;;;;;4.75;4.75;;;;;;;;5076384;28;46050;-77
2022/07/13 05:51:28;;;;;;;;;6.25;6.25;;;;;;;;5074436;28;45308;-77
2022/07/13 05:53:53;;;;;;;;;5.75;5.75;;;;;;;;5074077;28;45335;-77
2022/07/13 05:56:19;;;;;;;;;5.00;5.00;;;;;;;;5074906;27;46965;-77
2022/07/13 05:58:45;;;;;;;;;4.50;4.25;;;;;;;;5075687;28;45929;-77
2022/07/13 06:01:10;;;;;;;;;6.75;6.00;;;;;;;;5068690;27;45418;-78
2022/07/13 06:03:35;;;;;;;;;6.00;5.00;;;;;;;;5068003;28;45362;-78
2022/07/13 06:06:00;;;;;;;;;8.75;6.75;;;;;;;;5075436;28;45444;-82
2022/07/13 06:08:25;;;;;;;;;4.75;4.75;;;;;;;;5074461;28;45555;-81
2022/07/13 06:10:52;;;;;;;;;7.00;4.75;;;;;;;;5076736;28;45504;-80
2022/07/13 06:13:17;;;;;;;;;8.50;6.25;;;;;;;;5075963;28;45521;-81
2022/07/13 06:15:43;;;;;;;;;6.50;5.50;;;;;;;;5076137;28;45543;-79
2022/07/13 06:18:08;;;;;;;;;6.00;6.00;;;;;;;;5074703;27;46121;-81
2022/07/13 06:20:33;;;;;;;;;6.75;6.75;;;;;;;;5074976;28;45457;-79
2022/07/13 06:23:10;;;;;;;;;4.25;4.25;;;;;;;;5068937;28;45438;-82
2022/07/13 06:25:37;;;;;;;;;4.50;4.50;;;;;;;;5073029;27;45326;-83
2022/07/13 06:28:02;;;;;;;;;6.75;5.00;;;;;;;;5073811;28;46383;-77
2022/07/13 06:30:27;;;;;;;;;6.00;5.00;;;;;;;;5076611;28;45216;-79
2022/07/13 06:32:52;;;;;;;;;5.50;5.50;;;;;;;;5070456;27;45445;-79
2022/07/13 06:35:17;;;;;;;;;5.50;5.00;;;;;;;;5078406;28;45387;-78
2022/07/13 06:37:43;;;;;;;;;5.75;5.75;;;;;;;;5069463;28;45338;-81
2022/07/13 06:40:08;;;;;;;;;4.25;4.25;;;;;;;;5078493;28;45326;-83
2022/07/13 06:42:33;;;;;;;;;3.25;3.00;;;;;;;;5071727;28;45958;-81
2022/07/13 06:44:59;;;;;;;;;5.25;4.75;;;;;;;;5076121;28;45332;-80
2022/07/13 06:47:24;;;;;;;;;5.00;5.00;;;;;;;;5074445;28;47824;-79
2022/07/13 06:49:49;;;;;;;;;5.75;4.25;;;;;;;;5076548;28;45288;-80
2022/07/13 06:52:14;;;;;;;;;7.50;6.75;;;;;;;;5071860;28;45511;-81
2022/07/13 06:54:41;;;;;;;;;9.75;7.25;;;;;;;;5074840;28;45453;-79
2022/07/13 06:57:07;;;;;;;;;9.25;6.75;;;;;;;;5073498;28;46470;-84
2022/07/13 06:59:32;;;;;;;;;8.50;7.50;;;;;;;;5073023;27;45339;-80
2022/07/13 07:01:57;;;;;;;;;9.25;7.75;;;;;;;;5073627;28;45428;-83
2022/07/13 07:04:22;;;;;;;;;15.00;10.75;;;;;;;;5075567;28;45448;-80
2022/07/13 07:06:47;;;;;;;;;11.75;9.00;;;;;;;;5076141;28;46179;-80
2022/07/13 07:09:13;;;;;;;;;11.75;9.25;;;;;;;;5079503;28;45382;-81
2022/07/13 07:11:38;;;;;;;;;7.00;5.75;;;;;;;;5076116;28;45289;-84
2022/07/13 07:14:03;;;;;;;;;7.00;6.50;;;;;;;;5069453;28;45679;-85
2022/07/13 07:16:28;;;;;;;;;7.00;4.50;;;;;;;;5073262;28;46330;-83
2022/07/13 07:18:53;;;;;;;;;10.00;8.00;;;;;;;;5078903;28;45383;-85
2022/07/13 07:21:19;;;;;;;;;7.00;5.75;;;;;;;;5072302;28;45553;-82
2022/07/13 07:23:44;;;;;;;;;7.25;4.75;;;;;;;;5072159;28;45435;-83
2022/07/13 07:26:09;;;;;;;;;5.50;4.25;;;;;;;;5070656;27;47805;-81
2022/07/13 07:28:35;;;;;;;;;6.50;4.75;;;;;;;;5062179;28;45316;-83
2022/07/13 07:31:00;;;;;;;;;6.75;6.00;;;;;;;;5070963;28;45314;-81
2022/07/13 07:33:25;;;;;;;;;4.75;4.75;;;;;;;;5067518;28;45529;-85
2022/07/13 07:35:50;;;;;;;;;9.50;6.75;;;;;;;;5076436;28;46619;-83
2022/07/13 07:38:16;;;;;;;;;7.25;4.50;;;;;;;;5070476;28;45423;-80
2022/07/13 07:40:41;;;;;;;;;9.00;8.00;;;;;;;;5072572;28;45332;-80
2022/07/13 07:43:06;;;;;;;;;7.50;5.50;;;;;;;;5070155;28;45589;-79
2022/07/13 07:45:31;;;;;;;;;7.25;6.50;;;;;;;;5071298;27;45584;-82
2022/07/13 07:47:56;;;;;;;;;7.00;4.75;;;;;;;;5068863;28;45244;-82
2022/07/13 07:50:22;;;;;;;;;6.25;4.75;;;;;;;;5071211;28;45213;-81
2022/07/13 07:52:47;;;;;;;;;3.25;3.25;;;;;;;;5069984;28;45308;-81
2022/07/13 07:55:12;;;;;;;;;5.50;5.00;;;;;;;;5076228;28;45376;-83
2022/07/13 07:57:47;;;;;;;;;6.25;3.25;;;;;;;;5072295;28;46440;-81
2022/07/13 08:00:13;;;;;;;;;4.60;4.00;;;;;;;;5079677;28;45303;-80
2022/07/13 08:02:39;;;;;;;;;4.50;4.25;;;;;;;;5071182;28;45357;-79
2022/07/13 08:05:05;;;;;;;;;4.50;3.25;;;;;;;;5074033;28;46219;-80
2022/07/13 08:07:30;;;;;;;;;4.75;4.00;;;;;;;;5069393;28;45345;-87
2022/07/13 08:09:56;;;;;;;;;4.75;3.50;;;;;;;;5074846;28;45271;-81
2022/07/13 08:12:21;;;;;;;;;3.75;3.25;;;;;;;;5068989;28;45543;-86
2022/07/13 08:14:47;;;;;;;;;5.50;4.00;;;;;;;;5077321;28;46179;-75
2022/07/13 08:17:12;;;;;;;;;5.25;3.25;;;;;;;;5075221;28;45720;-78
2022/07/13 08:19:37;;;;;;;;;3.00;3.00;;;;;;;;5074650;28;45645;-75
2022/07/13 08:22:03;;;;;;;;;5.00;4.75;;;;;;;;5068876;28;45659;-76
2022/07/13 08:24:28;;;;;;;;;7.00;5.75;;;;;;;;5073636;28;45370;-77
2022/07/13 08:26:54;;;;;;;;;5.00;4.00;;;;;;;;5068303;28;45566;-78
2022/07/13 08:29:19;;;;;;;;;4.25;3.00;;;;;;;;5060981;28;45627;-78
2022/07/13 08:31:45;;;;;;;;;3.00;3.00;;;;;;;;5059924;28;45434;-78
2022/07/13 08:39:38;;;;;;;;;4.00;4.00;;;;;;;;5067818;28;45418;-78
2022/07/13 08:42:04;;;;;;;;;4.00;3.00;;;;;;;;5064251;28;45459;-79
2022/07/13 08:44:30;;;;;;;;;5.00;4.00;;;;;;;;5071175;28;45625;-79
2022/07/13 08:46:56;;;;;;;;;4.50;4.50;;;;;;;;5065556;28;45468;-79
2022/07/13 08:49:22;;;;;;;;;6.00;4.40;;;;;;;;5071758;28;45430;-78
2022/07/13 08:51:48;;;;;;;;;4.40;4.00;;;;;;;;5067353;28;45407;-79
2022/07/13 08:54:13;;;;;;;;;5.00;3.80;;;;;;;;5073505;28;45249;-79
2022/07/13 08:56:40;;;;;;;;;4.75;3.00;;;;;;;;5075440;28;45526;-76
2022/07/13 08:59:05;;;;;;;;;3.00;2.20;;;;;;;;5074776;28;45398;-76
2022/07/13 09:01:31;;;;;;;;;4.75;3.50;;;;;;;;5073005;28;45335;-76
2022/07/13 09:03:57;;;;;;;;;3.40;3.40;;;;;;;;5072084;28;45349;-76
2022/07/13 09:06:48;;;;;;;;;7.50;6.00;;;;;;;;5068058;28;45398;-77
2022/07/13 09:09:42;;;;;;;;;3.20;3.20;;;;;;;;5068607;28;45656;-77
2022/07/13 09:12:09;;;;;;;;;4.00;4.00;;;;;;;;5054535;28;45396;-77
2022/07/13 09:14:34;;;;;;;;;3.00;3.00;;;;;;;;5069954;28;48096;-75
2022/07/13 09:17:00;;;;;;;;;3.00;3.00;;;;;;;;5072821;28;45329;-75
2022/07/13 09:19:25;;;;;;;;;5.25;2.75;;;;;;;;5071979;28;45355;-75
2022/07/13 09:21:51;;;;;;;;;3.25;3.25;;;;;;;;5068541;28;45294;-75
2022/07/13 09:24:16;;;;;;;;;2.40;2.40;;;;;;;;5061201;28;45978;-75
2022/07/13 09:26:42;;;;;;;;;3.25;3.00;;;;;;;;5066479;28;45366;-77
2022/07/13 09:29:08;;;;;;;;;4.00;2.60;;;;;;;;5063610;28;45402;-79
2022/07/13 09:31:53;;;;;;;;;3.00;3.00;;;;;;;;5065236;28;46937;-78
2022/07/13 09:34:19;;;;;;;;;0.80;0.20;;;;;;;;5066185;28;46598;-78
2022/07/13 09:36:44;;;;;;;;;2.00;2.00;;;;;;;;5062785;27;45405;-79
2022/07/13 09:39:10;;;;;;;;;3.25;2.00;;;;;;;;5067574;28;45765;-77
2022/07/13 09:41:35;;;;;;;;;3.00;3.00;;;;;;;;5066669;28;45224;-78
2022/07/13 09:47:05;;;;;;;;;1.60;1.60;;;;;;;;5067412;28;45718;-80
2022/07/13 09:49:30;;;;;;;;;1.20;1.20;;;;;;;;5072281;28;45455;-80
2022/07/13 09:51:59;;;;;;;;;1.75;1.75;;;;;;;;5070638;28;47341;-81
2022/07/13 09:54:28;;;;;;;;;1.20;1.20;;;;;;;;5076640;28;46688;-79
2022/07/13 09:56:56;;;;;;;;;2.60;2.40;;;;;;;;5067698;28;45974;-78
2022/07/13 09:59:21;;;;;;;;;2.60;2.60;;;;;;;;5073949;28;45427;-79
2022/07/13 10:01:47;;;;;;;;;1.25;1.25;;;;;;;;5066834;28;45488;-79
2022/07/13 10:04:14;;;;;;;;;2.25;2.25;;;;;;;;5063724;28;45243;-81
2022/07/13 10:06:39;;;;;;;;;3.60;2.80;;;;;;;;5068455;28;45383;-80
2022/07/13 10:09:05;;;;;;;;;2.00;2.00;;;;;;;;5065940;28;45281;-80
2022/07/13 10:11:30;;;;;;;;;3.00;3.00;;;;;;;;5071658;28;45337;-80
2022/07/13 10:13:57;;;;;;;;;1.00;1.00;;;;;;;;5067521;28;45464;-80
2022/07/13 10:16:22;;;;;;;;;1.80;1.80;;;;;;;;5073776;28;45273;-80
2022/07/13 10:18:47;;;;;;;;;2.00;2.00;;;;;;;;5068880;28;45485;-80
2022/07/13 10:21:19;;;;;;;;;1.00;1.00;;;;;;;;5069906;28;45576;-80
2022/07/13 10:23:44;;;;;;;;;2.00;2.00;;;;;;;;5057719;28;45614;-80
2022/07/13 10:26:19;;;;;;;;;2.75;2.00;;;;;;;;5069961;28;45364;-79
2022/07/13 10:29:00;;;;;;;;;2.60;2.60;;;;;;;;5064939;28;45375;-82
2022/07/13 10:31:25;;;;;;;;;2.00;2.00;;;;;;;;5063178;28;47100;-80
2022/07/13 10:33:51;;;;;;;;;2.25;2.25;;;;;;;;5065519;28;46485;-80
2022/07/13 10:36:16;;;;;;;;;3.00;2.00;;;;;;;;5074343;28;45522;-79
2022/07/13 10:38:42;;;;;;;;;2.25;2.25;;;;;;;;5068370;28;45220;-80
2022/07/13 10:41:18;;;;;;;;;3.40;3.00;;;;;;;;5078167;28;45438;-80
2022/07/13 10:43:52;;;;;;;;;3.00;3.00;;;;;;;;5064254;28;45384;-79
2022/07/13 10:46:37;;;;;;;;;2.00;2.00;;;;;;;;5068579;27;45540;-80
2022/07/13 10:49:22;;;;;;;;;2.80;2.80;;;;;;;;5073364;28;45303;-81
2022/07/13 10:51:47;;;;;;;;;3.20;2.40;;;;;;;;5070698;28;45426;-79
2022/07/13 10:54:12;;;;;;;;;2.00;2.00;;;;;;;;5070525;28;45387;-77
2022/07/13 10:56:58;;;;;;;;;3.00;3.00;;;;;;;;5070375;28;45443;-76
2022/07/13 10:59:44;;;;;;;;;2.20;2.20;;;;;;;;5069219;28;45442;-77
2022/07/13 11:02:29;;;;;;;;;1.00;1.00;;;;;;;;5066172;28;45560;-78
2022/07/13 11:04:56;;;;;;;;;2.80;2.80;;;;;;;;5075287;28;48205;-75
2022/07/13 11:07:38;;;;;;;;;3.40;2.80;;;;;;;;5072030;28;45324;-79
2022/07/13 11:10:23;;;;;;;;;3.20;2.20;;;;;;;;5078445;28;45343;-79
2022/07/13 11:13:01;;;;;;;;;1.00;1.00;;;;;;;;5067429;27;47646;-77
2022/07/13 11:15:45;;;;;;;;;3.60;2.00;;;;;;;;5079107;28;46795;-76
2022/07/13 11:18:27;;;;;;;;;2.80;2.80;;;;;;;;5063239;28;45236;-75
2022/07/13 11:20:58;;;;;;;;;2.00;2.00;;;;;;;;5065183;28;45447;-77
2022/07/13 11:26:23;;;;;;;;;1.60;1.60;;;;;;;;5074683;28;45677;-78
2022/07/13 11:29:07;;;;;;;;;2.60;2.60;;;;;;;;5070310;28;45410;-79
2022/07/13 11:31:32;;;;;;;;;2.40;2.40;;;;;;;;5063047;28;45469;-79
2022/07/13 11:33:57;;;;;;;;;3.75;2.00;;;;;;;;5080328;27;45488;-79
2022/07/13 11:36:24;;;;;;;;;3.00;3.00;;;;;;;;5072064;28;45426;-79
2022/07/13 11:38:50;;;;;;;;;2.40;2.40;;;;;;;;5072749;28;45508;-81
2022/07/13 11:41:20;;;;;;;;;3.25;2.25;;;;;;;;5077477;28;45257;-77
2022/07/13 11:43:46;;;;;;;;;3.00;3.00;;;;;;;;5075964;28;46221;-76
2022/07/13 11:46:12;;;;;;;;;2.20;2.00;;;;;;;;5075561;28;46179;-79
2022/07/13 11:48:37;;;;;;;;;2.50;2.50;;;;;;;;5078081;28;45362;-77
2022/07/13 11:51:06;;;;;;;;;4.00;4.00;;;;;;;;5076630;28;45185;-77
2022/07/13 11:53:31;;;;;;;;;3.00;3.00;;;;;;;;5077302;28;45627;-76
2022/07/13 11:55:57;;;;;;;;;3.50;3.50;;;;;;;;5078874;28;45501;-74
2022/07/13 11:58:31;;;;;;;;;4.00;4.00;;;;;;;;5064524;28;45430;-75
2022/07/13 12:00:57;;;;;;;;;3.20;2.40;;;;;;;;5076293;27;45502;-74
2022/07/13 12:03:33;;;;;;;;;2.50;2.50;;;;;;;;5070294;28;45417;-75
2022/07/13 12:05:59;;;;;;;;;4.80;2.40;;;;;;;;5072573;28;46280;-74
2022/07/13 12:08:24;;;;;;;;;4.40;3.20;;;;;;;;5063446;28;45510;-75
2022/07/13 12:10:50;;;;;;;;;2.00;2.00;;;;;;;;5075068;28;45436;-75
2022/07/13 12:13:16;;;;;;;;;3.00;3.00;;;;;;;;5069303;28;46437;-75
2022/07/13 12:15:43;;;;;;;;;4.00;2.60;;;;;;;;5072678;28;47858;-75
2022/07/13 12:18:09;;;;;;;;;4.60;3.00;;;;;;;;5068425;28;45440;-74
2022/07/13 12:20:34;;;;;;;;;2.75;2.75;;;;;;;;5063623;27;45250;-74
2022/07/13 12:22:59;;;;;;;;;3.25;3.25;;;;;;;;5070740;28;46238;-74
2022/07/13 12:25:29;;;;;;;;;4.00;2.50;;;;;;;;5068209;27;46965;-74
2022/07/13 12:27:55;;;;;;;;;4.00;3.20;;;;;;;;5089085;27;45492;-75
2022/07/13 12:30:20;;;;;;;;;4.75;3.25;;;;;;;;5077602;28;45548;-74
2022/07/13 12:32:55;;;;;;;;;2.00;2.00;;;;;;;;5072696;28;45466;-74
2022/07/13 12:35:21;;;;;;;;;3.20;3.20;;;;;;;;5078787;28;46191;-74
2022/07/13 12:37:50;;;;;;;;;4.00;4.00;;;;;;;;5076156;27;46710;-73
2022/07/13 12:40:41;;;;;;;;;3.40;3.20;;;;;;;;5078681;28;45466;-74
2022/07/13 12:43:19;;;;;;;;;5.00;3.60;;;;;;;;5076393;27;45541;-76
2022/07/13 12:45:46;;;;;;;;;2.80;2.80;;;;;;;;5072544;27;45408;-76
2022/07/13 12:48:15;;;;;;;;;6.80;6.80;;;;;;;;5072623;28;45295;-79
2022/07/13 12:50:40;;;;;;;;;9.20;9.00;;;;;;;;5077206;28;45568;-74
2022/07/13 12:53:05;;;;;;;;;2.00;2.00;;;;;;;;5066926;27;47481;-77
2022/07/13 12:55:48;;;;;;;;;2.00;2.00;;;;;;;;5079960;27;45340;-77
2022/07/13 12:58:13;;;;;;;;;2.80;2.00;;;;;;;;5075643;27;45389;-78
2022/07/13 13:00:39;;;;;;;;;2.25;2.25;;;;;;;;5070090;27;45616;-81
2022/07/13 13:03:04;;;;;;;;;3.00;3.00;;;;;;;;5073477;27;45387;-79
2022/07/13 13:05:29;;;;;;;;;1.25;1.25;;;;;;;;5077302;27;45436;-77
2022/07/13 13:07:55;;;;;;;;;3.00;3.00;;;;;;;;5071610;28;45479;-77
2022/07/13 13:10:20;;;;;;;;;2.00;2.00;;;;;;;;5076587;28;45442;-78
2022/07/13 13:12:45;;;;;;;;;3.00;3.00;;;;;;;;5076240;27;45618;-79
2022/07/13 13:15:10;;;;;;;;;2.50;2.50;;;;;;;;5074545;28;48175;-78
2022/07/13 13:17:35;;;;;;;;;2.00;2.00;;;;;;;;5071803;28;45379;-78
2022/07/13 13:20:01;;;;;;;;;3.00;3.00;;;;;;;;5074366;28;46446;-78
2022/07/13 13:22:26;;;;;;;;;3.25;3.25;;;;;;;;5075924;28;45555;-79
2022/07/13 13:24:51;;;;;;;;;3.50;3.50;;;;;;;;5075689;27;45263;-78
2022/07/13 13:27:16;;;;;;;;;2.25;2.25;;;;;;;;5066216;27;45244;-78
2022/07/13 13:32:25;;;;;;;;;2.00;2.00;;;;;;;;5074100;27;46876;-80
2022/07/13 13:34:51;;;;;;;;;2.00;2.00;;;;;;;;5076693;27;46586;-76
2022/07/13 13:37:17;;;;;;;;;3.25;3.25;;;;;;;;5073139;27;45445;-79
2022/07/13 13:39:42;;;;;;;;;1.75;1.75;;;;;;;;5075708;28;45230;-76
2022/07/13 13:42:07;;;;;;;;;2.25;2.00;;;;;;;;5073066;28;46316;-78
2022/07/13 13:44:33;;;;;;;;;3.00;3.00;;;;;;;;5074297;28;45718;-77
2022/07/13 13:46:58;;;;;;;;;2.25;2.25;;;;;;;;5066925;28;45413;-81
2022/07/13 13:49:23;;;;;;;;;1.75;1.75;;;;;;;;5073297;28;45459;-76
2022/07/13 13:51:48;;;;;;;;;4.00;4.00;;;;;;;;5071872;28;45608;-77
2022/07/13 13:54:13;;;;;;;;;5.00;4.00;;;;;;;;5075321;28;45281;-78
2022/07/13 13:56:39;;;;;;;;;2.75;2.75;;;;;;;;5073779;27;45501;-78
2022/07/13 13:59:04;;;;;;;;;2.00;2.00;;;;;;;;5074251;28;45407;-76
2022/07/13 14:01:30;;;;;;;;;2.50;2.50;;;;;;;;5073747;27;45426;-75
2022/07/13 14:03:55;;;;;;;;;1.00;1.00;;;;;;;;5070704;27;47740;-77
2022/07/13 14:06:20;;;;;;;;;2.50;2.50;;;;;;;;5070491;27;45501;-76
2022/07/13 14:08:45;;;;;;;;;2.00;2.00;;;;;;;;5073988;27;45460;-76
2022/07/13 14:11:11;;;;;;;;;2.25;2.25;;;;;;;;5071666;28;46665;-78
2022/07/13 14:13:36;;;;;;;;;1.50;1.25;;;;;;;;5073784;28;46875;-75
2022/07/13 14:16:01;;;;;;;;;1.50;1.50;;;;;;;;5070591;28;45406;-76
2022/07/13 14:18:27;;;;;;;;;1.50;1.50;;;;;;;;5071945;28;45474;-75
2022/07/13 14:20:56;;;;;;;;;3.75;3.00;;;;;;;;5071809;28;45515;-76
2022/07/13 14:23:21;;;;;;;;;3.00;1.60;;;;;;;;5067961;28;45659;-76
2022/07/13 14:25:46;;;;;;;;;2.00;2.00;;;;;;;;5070031;28;45513;-78
2022/07/13 14:28:11;;;;;;;;;2.25;2.25;;;;;;;;5073459;28;45527;-76
2022/07/13 14:30:36;;;;;;;;;3.00;3.00;;;;;;;;5072553;28;45530;-76
2022/07/13 14:33:02;;;;;;;;;2.50;2.50;;;;;;;;5072349;27;45446;-77
2022/07/13 14:35:27;;;;;;;;;5.75;5.75;;;;;;;;5073970;27;45433;-79
2022/07/13 14:37:52;;;;;;;;;3.00;3.00;;;;;;;;5071216;28;45346;-77
2022/07/13 14:40:18;;;;;;;;;2.00;2.00;;;;;;;;5075511;27;45413;-77
2022/07/13 14:42:43;;;;;;;;;3.75;2.75;;;;;;;;5070549;27;45797;-77
2022/07/13 14:45:08;;;;;;;;;3.00;2.75;;;;;;;;5073150;28;45822;-78
2022/07/13 14:47:34;;;;;;;;;4.00;4.00;;;;;;;;5072751;27;45457;-78
2022/07/13 14:49:59;;;;;;;;;4.00;4.00;;;;;;;;5073305;28;47053;-77
2022/07/13 14:52:24;;;;;;;;;3.50;3.50;;;;;;;;5071521;27;46586;-75